createdAt,value
2019-06-10T00:00:45.348Z,1.90
2019-06-10T00:01:31.586Z,2.33
2019-06-10T00:02:17.242Z,2.30
2019-06-10T00:03:04.462Z,1.60
2019-06-10T00:03:51.750Z,2.17
2019-06-10T00:04:37.843Z,2.07
2019-06-10T00:05:23.846Z,1.83
2019-06-10T00:06:11.612Z,1.70
2019-06-10T00:06:57.761Z,2.27
2019-06-10T00:07:43.656Z,2.07
2019-06-10T00:08:30.866Z,1.83
2019-06-10T00:09:17.210Z,2.30
2019-06-10T00:10:05.473Z,1.90
2019-06-10T00:10:51.904Z,2.00
2019-06-10T00:11:37.661Z,2.07
2019-06-10T00:12:23.639Z,1.73
2019-06-10T00:13:11.917Z,1.87
2019-06-10T00:13:58.571Z,2.33
2019-06-10T00:14:44.716Z,1.80
2019-06-10T00:15:31.404Z,1.97
2019-06-10T00:16:17.755Z,1.83
2019-06-10T00:17:05.106Z,1.80
2019-06-10T00:18:07.040Z,2.13
2019-06-10T00:18:43.026Z,2.10
2019-06-10T00:19:26.542Z,2.30
2019-06-10T00:20:14.130Z,2.00
2019-06-10T00:21:03.326Z,2.30
2019-06-10T00:21:48.034Z,2.20
2019-06-10T00:22:33.723Z,1.90
2019-06-10T00:23:21.259Z,1.73
2019-06-10T00:24:08.491Z,2.20
2019-06-10T00:24:54.337Z,2.03
2019-06-10T00:25:41.596Z,2.00
2019-06-10T00:26:27.767Z,1.93
2019-06-10T00:27:13.472Z,2.50
2019-06-10T00:28:00.549Z,2.10
2019-06-10T00:28:47.017Z,2.30
2019-06-10T00:29:33.221Z,2.30
2019-06-10T00:30:20.803Z,1.97
2019-06-10T00:31:07.170Z,2.33
2019-06-10T00:31:53.281Z,2.13
2019-06-10T00:32:41.188Z,1.80
2019-06-10T00:33:27.493Z,1.87
2019-06-10T00:34:13.659Z,2.00
2019-06-10T00:35:01.945Z,2.00
2019-06-10T00:35:47.691Z,2.47
2019-06-10T00:36:33.970Z,2.20
2019-06-10T00:37:21.148Z,2.07
2019-06-10T00:38:09.042Z,2.40
2019-06-10T00:38:55.403Z,1.90
2019-06-10T00:39:41.341Z,2.17
2019-06-10T00:40:27.480Z,2.23
2019-06-10T00:41:14.220Z,2.17
2019-06-10T00:42:03.186Z,2.23
2019-06-10T00:42:48.091Z,2.10
2019-06-10T00:43:33.848Z,2.37
2019-06-10T00:44:20.603Z,2.67
2019-06-10T00:45:14.672Z,2.07
2019-06-10T00:45:56.516Z,2.07
2019-06-10T00:46:42.595Z,2.17
2019-06-10T00:47:30.747Z,1.90
2019-06-10T00:48:26.274Z,2.00
2019-06-10T00:49:06.294Z,2.00
2019-06-10T00:49:53.527Z,1.83
2019-06-10T00:50:41.511Z,2.70
2019-06-10T00:51:31.375Z,2.20
2019-06-10T00:52:17.750Z,2.07
2019-06-10T00:53:05.877Z,2.23
2019-06-10T00:53:52.711Z,2.20
2019-06-10T00:54:41.582Z,2.10
2019-06-10T00:55:27.123Z,2.30
2019-06-10T00:56:14.454Z,2.50
2019-06-10T00:57:02.279Z,2.50
2019-06-10T00:57:48.217Z,2.10
2019-06-10T00:58:33.822Z,2.27
2019-06-10T00:59:21.804Z,2.00
2019-06-10T01:00:14.642Z,2.20
2019-06-10T01:00:55.671Z,2.13
2019-06-10T01:01:41.845Z,2.53
2019-06-10T01:02:27.672Z,2.80
2019-06-10T01:03:15.331Z,2.20
2019-06-10T01:04:03.411Z,2.43
2019-06-10T01:04:51.374Z,2.07
2019-06-10T01:05:37.476Z,2.20
2019-06-10T01:06:23.531Z,2.33
2019-06-10T01:07:16.292Z,2.30
2019-06-10T01:08:04.525Z,2.07
2019-06-10T01:08:51.248Z,2.20
2019-06-10T01:09:37.639Z,2.17
2019-06-10T01:10:23.994Z,1.83
2019-06-10T01:11:19.737Z,1.80
2019-06-10T01:12:01.053Z,1.93
2019-06-10T01:12:46.778Z,1.97
2019-06-10T01:13:34.118Z,1.90
2019-06-10T01:14:21.523Z,2.20
2019-06-10T01:15:09.398Z,2.63
2019-06-10T01:15:56.023Z,2.50
2019-06-10T01:16:42.223Z,2.20
2019-06-10T01:17:30.978Z,2.27
2019-06-10T01:18:32.003Z,2.47
2019-06-10T01:19:05.687Z,2.07
2019-06-10T01:19:51.687Z,2.00
2019-06-10T01:20:37.815Z,2.70
2019-06-10T01:21:23.817Z,2.30
2019-06-10T01:22:11.076Z,2.50
2019-06-10T01:22:57.808Z,2.20
2019-06-10T01:23:44.095Z,2.40
2019-06-10T01:24:31.914Z,2.37
2019-06-10T01:25:18.119Z,2.03
2019-06-10T01:26:05.621Z,2.17
2019-06-10T01:26:51.414Z,2.20
2019-06-10T01:27:37.156Z,2.20
2019-06-10T01:28:23.688Z,2.03
2019-06-10T01:29:12.314Z,1.90
2019-06-10T01:29:58.040Z,2.20
2019-06-10T01:30:44.401Z,2.20
2019-06-10T01:31:31.838Z,2.13
2019-06-10T01:32:18.053Z,2.17
2019-06-10T01:33:03.838Z,2.30
2019-06-10T01:33:51.337Z,1.80
2019-06-10T01:34:37.396Z,2.10
2019-06-10T01:35:23.579Z,1.90
2019-06-10T01:36:12.576Z,1.90
2019-06-10T01:36:57.901Z,2.40
2019-06-10T01:37:43.539Z,2.27
2019-06-10T01:38:31.527Z,1.80
2019-06-10T01:39:18.419Z,2.10
2019-06-10T01:40:05.996Z,1.87
2019-06-10T01:40:53.451Z,1.90
2019-06-10T01:41:40.954Z,1.90
2019-06-10T01:42:27.268Z,2.07
2019-06-10T01:43:16.456Z,1.60
2019-06-10T01:44:01.742Z,2.03
2019-06-10T01:44:50.532Z,2.17
2019-06-10T01:45:36.194Z,1.93
2019-06-10T01:46:21.863Z,2.20
2019-06-10T01:47:11.448Z,2.00
2019-06-10T01:47:57.074Z,1.93
2019-06-10T01:48:47.917Z,2.23
2019-06-10T01:49:31.577Z,2.00
2019-06-10T01:50:19.502Z,2.20
2019-06-10T01:51:07.046Z,2.03
2019-06-10T01:51:52.950Z,2.10
2019-06-10T01:52:40.961Z,2.20
2019-06-10T01:53:26.317Z,1.90
2019-06-10T01:54:15.289Z,2.20
2019-06-10T01:55:01.676Z,2.37
2019-06-10T01:55:47.560Z,2.17
2019-06-10T01:56:33.206Z,1.87
2019-06-10T01:57:21.263Z,1.80
2019-06-10T01:58:07.776Z,2.00
2019-06-10T01:58:53.985Z,1.90
2019-06-10T01:59:41.384Z,2.10
2019-06-10T02:00:38.847Z,2.03
2019-06-10T02:01:47.483Z,2.10
2019-06-10T02:02:35.208Z,2.33
2019-06-10T02:03:24.000Z,2.30
2019-06-10T02:04:13.098Z,2.47
2019-06-10T02:04:58.091Z,2.30
2019-06-10T02:05:44.998Z,1.93
2019-06-10T02:06:31.635Z,1.97
2019-06-10T02:07:18.824Z,2.33
2019-06-10T02:08:06.050Z,1.90
2019-06-10T02:09:04.487Z,2.13
2019-06-10T02:09:51.736Z,2.10
2019-06-10T02:10:37.938Z,2.23
2019-06-10T02:11:23.911Z,1.97
2019-06-10T02:12:12.856Z,2.57
2019-06-10T02:12:58.582Z,2.20
2019-06-10T02:13:44.234Z,2.23
2019-06-10T02:14:31.797Z,2.70
2019-06-10T02:15:18.471Z,2.17
2019-06-10T02:16:05.944Z,2.00
2019-06-10T02:16:52.676Z,2.13
2019-06-10T02:17:38.973Z,2.00
2019-06-10T02:18:25.157Z,2.20
2019-06-10T02:19:14.147Z,2.00
2019-06-10T02:20:00.978Z,1.83
2019-06-10T02:20:46.657Z,1.83
2019-06-10T02:21:32.804Z,2.23
2019-06-10T02:22:20.310Z,2.20
2019-06-10T02:23:06.308Z,2.30
2019-06-10T02:23:52.184Z,2.33
2019-06-10T02:24:38.276Z,2.60
2019-06-10T02:25:24.017Z,2.13
2019-06-10T02:26:11.831Z,2.20
2019-06-10T02:26:57.802Z,2.27
2019-06-10T02:27:44.062Z,2.43
2019-06-10T02:28:31.690Z,2.10
2019-06-10T02:29:17.375Z,2.30
2019-06-10T02:30:13.624Z,2.07
2019-06-10T02:30:55.458Z,2.40
2019-06-10T02:31:42.800Z,2.40
2019-06-10T02:32:32.951Z,2.27
2019-06-10T02:33:17.430Z,2.10
2019-06-10T02:34:02.773Z,2.40
2019-06-10T02:35:03.700Z,2.37
2019-06-10T02:35:43.338Z,2.43
2019-06-10T02:36:31.046Z,2.10
2019-06-10T02:37:16.250Z,2.10
2019-06-10T02:37:59.694Z,2.20
2019-06-10T02:38:45.417Z,2.40
2019-06-10T02:39:35.188Z,2.50
2019-06-10T02:40:28.231Z,2.30
2019-06-10T02:41:09.372Z,2.53
2019-06-10T02:42:04.194Z,2.27
2019-06-10T02:42:53.796Z,2.10
2019-06-10T02:43:38.660Z,2.00
2019-06-10T02:44:32.549Z,2.20
2019-06-10T02:45:15.157Z,2.60
2019-06-10T02:46:04.378Z,2.27
2019-06-10T02:46:49.988Z,2.23
2019-06-10T02:47:37.792Z,2.43
2019-06-10T02:48:30.138Z,2.10
2019-06-10T02:49:28.359Z,2.40
2019-06-10T02:50:04.495Z,2.90
2019-06-10T02:51:15.858Z,2.20
2019-06-10T02:52:03.758Z,2.30
2019-06-10T02:52:53.040Z,2.40
2019-06-10T02:53:38.165Z,2.23
2019-06-10T02:54:30.927Z,2.10
2019-06-10T02:55:13.989Z,2.20
2019-06-10T02:55:59.920Z,2.40
2019-06-10T02:56:46.058Z,2.00
2019-06-10T02:57:38.882Z,2.60
2019-06-10T02:58:23.072Z,2.63
2019-06-10T02:59:06.992Z,2.50
2019-06-10T02:59:54.448Z,2.40
2019-06-10T03:00:48.012Z,2.10
2019-06-10T03:01:32.882Z,2.63
2019-06-10T03:02:18.107Z,2.57
2019-06-10T03:03:04.017Z,2.40
2019-06-10T03:03:53.346Z,2.17
2019-06-10T03:04:37.927Z,2.20
2019-06-10T03:05:30.641Z,1.90
2019-06-10T03:06:14.390Z,2.63
2019-06-10T03:06:59.689Z,2.80
2019-06-10T03:07:45.284Z,2.53
2019-06-10T03:08:32.750Z,2.30
2019-06-10T03:09:20.502Z,2.67
2019-06-10T03:10:06.153Z,2.30
2019-06-10T03:10:54.694Z,2.50
2019-06-10T03:11:44.492Z,2.70
2019-06-10T03:12:33.071Z,2.97
2019-06-10T03:13:19.880Z,2.43
2019-06-10T03:14:06.378Z,2.37
2019-06-10T03:14:52.626Z,2.73
2019-06-10T03:15:43.351Z,3.10
2019-06-10T03:16:34.540Z,2.40
2019-06-10T03:17:24.566Z,2.60
2019-06-10T03:18:10.213Z,2.43
2019-06-10T03:18:56.164Z,2.40
2019-06-10T03:19:50.139Z,2.73
2019-06-10T03:20:32.071Z,2.40
2019-06-10T03:21:18.135Z,2.70
2019-06-10T03:22:04.239Z,2.50
2019-06-10T03:22:49.834Z,2.33
2019-06-10T03:23:36.022Z,2.50
2019-06-10T03:24:23.947Z,2.73
2019-06-10T03:25:10.072Z,2.70
2019-06-10T03:26:00.147Z,3.17
2019-06-10T03:26:45.893Z,2.57
2019-06-10T03:27:32.861Z,2.67
2019-06-10T03:28:19.506Z,2.60
2019-06-10T03:29:05.380Z,2.50
2019-06-10T03:29:52.689Z,2.37
2019-06-10T03:30:49.711Z,2.67
2019-06-10T03:31:35.252Z,2.60
2019-06-10T03:32:15.226Z,2.60
2019-06-10T03:33:04.957Z,3.07
2019-06-10T03:33:49.294Z,2.60
2019-06-10T03:34:41.480Z,3.13
2019-06-10T03:35:25.078Z,2.70
2019-06-10T03:36:11.983Z,2.70
2019-06-10T03:36:58.047Z,2.73
2019-06-10T03:37:45.062Z,2.40
2019-06-10T03:38:32.560Z,2.53
2019-06-10T03:39:18.771Z,2.47
2019-06-10T03:40:04.555Z,2.80
2019-06-10T03:40:52.347Z,2.80
2019-06-10T03:41:38.079Z,2.90
2019-06-10T03:42:26.463Z,2.80
2019-06-10T03:43:11.974Z,2.80
2019-06-10T03:43:58.003Z,2.63
2019-06-10T03:44:43.983Z,2.60
2019-06-10T03:45:32.277Z,2.80
2019-06-10T03:46:18.969Z,2.70
2019-06-10T03:47:04.951Z,2.70
2019-06-10T03:47:52.608Z,2.97
2019-06-10T03:48:38.192Z,2.90
2019-06-10T03:49:25.807Z,2.70
2019-06-10T03:50:13.208Z,2.60
2019-06-10T03:50:59.331Z,2.40
2019-06-10T03:51:45.517Z,2.30
2019-06-10T03:52:32.445Z,2.80
2019-06-10T03:54:52.595Z,2.90
2019-06-10T03:55:39.319Z,2.53
2019-06-10T03:56:25.482Z,2.97
2019-06-10T03:57:12.641Z,3.00
2019-06-10T03:57:59.254Z,2.70
2019-06-10T03:58:44.967Z,2.60
2019-06-10T03:59:32.447Z,2.73
2019-06-10T04:00:19.479Z,2.90
2019-06-10T04:01:06.315Z,3.10
2019-06-10T04:01:52.921Z,2.90
2019-06-10T04:02:39.163Z,3.00
2019-06-10T04:03:27.682Z,2.80
2019-06-10T04:04:15.511Z,3.23
2019-06-10T04:05:02.756Z,3.20
2019-06-10T04:05:48.862Z,3.00
2019-06-10T04:06:34.946Z,2.50
2019-06-10T04:07:24.122Z,2.87
2019-06-10T04:08:08.394Z,2.70
2019-06-10T04:08:54.542Z,3.17
2019-06-10T04:09:42.396Z,2.73
2019-06-10T04:10:29.548Z,3.40
2019-06-10T04:11:15.659Z,3.40
2019-06-10T04:12:02.054Z,3.43
2019-06-10T04:12:47.923Z,4.13
2019-06-10T04:13:34.077Z,3.10
2019-06-10T04:14:22.061Z,3.40
2019-06-10T04:15:07.690Z,3.27
2019-06-10T04:15:56.151Z,3.23
2019-06-10T04:16:43.307Z,3.10
2019-06-10T04:17:29.360Z,3.47
2019-06-10T04:18:15.362Z,3.37
2019-06-10T04:19:02.589Z,3.57
2019-06-10T04:19:48.644Z,3.87
2019-06-10T04:20:34.622Z,3.03
2019-06-10T04:21:22.758Z,2.90
2019-06-10T04:22:09.107Z,3.37
2019-06-10T04:22:55.657Z,3.50
2019-06-10T04:23:43.719Z,3.63
2019-06-10T04:24:32.510Z,3.43
2019-06-10T04:25:17.847Z,3.30
2019-06-10T04:26:04.148Z,3.53
2019-06-10T04:26:52.090Z,4.00
2019-06-10T04:27:37.871Z,3.73
2019-06-10T04:28:25.586Z,4.30
2019-06-10T04:29:13.034Z,3.93
2019-06-10T04:29:58.875Z,3.67
2019-06-10T04:30:44.508Z,3.73
2019-06-10T04:31:30.158Z,3.50
2019-06-10T04:32:15.795Z,3.37
2019-06-10T04:33:02.314Z,3.30
2019-06-10T04:33:48.261Z,3.13
2019-06-10T04:34:34.074Z,3.60
2019-06-10T04:35:21.006Z,3.00
2019-06-10T04:36:07.869Z,3.73
2019-06-10T04:36:53.618Z,3.83
2019-06-10T04:37:40.037Z,3.63
2019-06-10T04:38:27.615Z,3.63
2019-06-10T04:39:14.687Z,4.07
2019-06-10T04:40:02.630Z,3.67
2019-06-10T04:40:48.099Z,4.40
2019-06-10T04:41:33.791Z,4.03
2019-06-10T04:42:20.906Z,3.83
2019-06-10T04:43:07.751Z,4.03
2019-06-10T04:43:54.060Z,3.67
2019-06-10T04:44:42.198Z,3.90
2019-06-10T04:45:28.947Z,4.03
2019-06-10T04:46:15.147Z,3.90
2019-06-10T04:47:02.739Z,3.70
2019-06-10T04:47:49.057Z,3.70
2019-06-10T04:48:35.145Z,3.77
2019-06-10T04:49:24.385Z,3.67
2019-06-10T04:50:24.098Z,3.90
2019-06-10T04:50:57.009Z,3.70
2019-06-10T04:51:43.591Z,4.50
2019-06-10T04:52:32.750Z,4.37
2019-06-10T04:53:18.621Z,6.10
2019-06-10T04:54:04.835Z,5.60
2019-06-10T04:54:52.735Z,6.77
2019-06-10T04:55:38.946Z,6.07
2019-06-10T04:56:27.129Z,6.43
2019-06-10T04:57:14.230Z,5.80
2019-06-10T04:58:02.542Z,5.70
2019-06-10T04:58:48.919Z,5.27
2019-06-10T04:59:35.351Z,6.33
2019-06-10T05:00:24.100Z,5.97
2019-06-10T05:01:12.142Z,5.50
2019-06-10T05:01:58.183Z,5.50
2019-06-10T05:02:46.859Z,5.10
2019-06-10T05:03:33.058Z,5.67
2019-06-10T05:04:19.068Z,5.80
2019-06-10T05:05:04.828Z,5.30
2019-06-10T05:05:52.572Z,5.10
2019-06-10T05:06:38.257Z,5.60
2019-06-10T05:07:25.609Z,5.13
2019-06-10T05:08:13.157Z,5.67
2019-06-10T05:08:58.874Z,5.00
2019-06-10T05:09:44.616Z,5.00
2019-06-10T05:10:33.189Z,5.10
2019-06-10T05:11:19.161Z,4.77
2019-06-10T05:12:04.830Z,4.03
2019-06-10T05:12:52.583Z,4.60
2019-06-10T05:13:38.363Z,4.67
2019-06-10T05:14:25.730Z,4.30
2019-06-10T05:15:12.688Z,4.50
2019-06-10T05:15:58.675Z,4.07
2019-06-10T05:16:44.476Z,4.10
2019-06-10T05:17:31.773Z,4.47
2019-06-10T05:18:17.973Z,4.13
2019-06-10T05:19:03.956Z,4.10
2019-06-10T05:19:49.901Z,4.70
2019-06-10T05:20:50.801Z,3.30
2019-06-10T05:21:27.550Z,3.70
2019-06-10T05:22:12.389Z,3.83
2019-06-10T05:22:58.469Z,3.60
2019-06-10T05:23:45.378Z,3.63
2019-06-10T05:24:34.182Z,4.07
2019-06-10T05:25:20.433Z,3.70
2019-06-10T05:26:08.046Z,3.87
2019-06-10T05:26:54.504Z,3.63
2019-06-10T05:27:42.885Z,4.07
2019-06-10T05:28:30.101Z,3.60
2019-06-10T05:29:16.362Z,4.00
2019-06-10T05:30:02.477Z,3.87
2019-06-10T05:30:48.747Z,3.80
2019-06-10T05:31:35.344Z,4.30
2019-06-10T05:32:23.238Z,3.37
2019-06-10T05:33:09.127Z,4.07
2019-06-10T05:33:56.740Z,3.70
2019-06-10T05:34:43.666Z,4.00
2019-06-10T05:35:31.568Z,3.07
2019-06-10T05:36:17.699Z,3.17
2019-06-10T05:37:03.525Z,3.70
2019-06-10T05:37:49.679Z,3.40
2019-06-10T05:38:35.825Z,3.33
2019-06-10T05:39:24.315Z,3.63
2019-06-10T05:40:12.576Z,3.10
2019-06-10T05:40:58.243Z,3.30
2019-06-10T05:41:44.626Z,3.43
2019-06-10T05:42:34.031Z,4.00
2019-06-10T05:43:18.854Z,3.73
2019-06-10T05:44:04.550Z,3.23
2019-06-10T05:44:52.297Z,3.50
2019-06-10T05:45:38.113Z,3.57
2019-06-10T05:46:25.762Z,3.20
2019-06-10T05:47:12.663Z,3.33
2019-06-10T05:47:58.829Z,3.47
2019-06-10T05:48:44.490Z,3.30
2019-06-10T05:49:31.048Z,3.77
2019-06-10T05:50:17.717Z,3.80
2019-06-10T05:51:06.708Z,3.70
2019-06-10T05:51:52.699Z,4.20
2019-06-10T05:52:38.692Z,3.80
2019-06-10T05:53:26.197Z,4.13
2019-06-10T05:54:13.019Z,3.90
2019-06-10T05:54:58.783Z,3.30
2019-06-10T05:55:44.867Z,3.87
2019-06-10T05:56:33.527Z,4.10
2019-06-10T05:57:18.504Z,4.20
2019-06-10T05:58:04.168Z,4.03
2019-06-10T05:58:52.259Z,3.63
2019-06-10T05:59:37.867Z,4.00
2019-06-10T06:00:24.910Z,4.00
2019-06-10T06:01:13.280Z,4.70
2019-06-10T06:02:02.154Z,4.13
2019-06-10T06:02:47.385Z,4.43
2019-06-10T06:03:36.865Z,4.23
2019-06-10T06:04:23.334Z,4.07
2019-06-10T06:05:12.842Z,3.70
2019-06-10T06:05:59.443Z,4.00
2019-06-10T06:06:46.700Z,4.47
2019-06-10T06:07:35.234Z,3.97
2019-06-10T06:08:23.030Z,4.63
2019-06-10T06:09:09.371Z,3.80
2019-06-10T06:09:55.555Z,4.47
2019-06-10T06:10:42.376Z,4.50
2019-06-10T06:11:29.337Z,4.40
2019-06-10T06:12:15.651Z,4.17
2019-06-10T06:13:03.077Z,4.20
2019-06-10T06:13:49.115Z,4.70
2019-06-10T06:14:36.122Z,4.40
2019-06-10T06:15:22.202Z,3.80
2019-06-10T06:16:08.182Z,4.00
2019-06-10T06:16:54.079Z,3.97
2019-06-10T06:17:42.971Z,3.90
2019-06-10T06:18:29.968Z,3.47
2019-06-10T06:19:16.190Z,3.70
2019-06-10T06:20:02.859Z,3.93
2019-06-10T06:20:48.863Z,4.37
2019-06-10T06:21:42.083Z,3.83
2019-06-10T06:22:22.753Z,3.53
2019-06-10T06:23:09.271Z,3.87
2019-06-10T06:23:55.243Z,4.20
2019-06-10T06:24:42.766Z,3.73
2019-06-10T06:25:30.459Z,4.07
2019-06-10T06:26:16.975Z,4.20
2019-06-10T06:27:03.381Z,3.80
2019-06-10T06:27:49.769Z,3.70
2019-06-10T06:28:36.169Z,3.53
2019-06-10T06:29:22.912Z,3.30
2019-06-10T06:30:14.786Z,2.97
2019-06-10T06:30:57.682Z,3.07
2019-06-10T06:31:43.867Z,3.03
2019-06-10T06:32:31.096Z,3.37
2019-06-10T06:33:18.665Z,3.10
2019-06-10T06:34:04.844Z,3.17
2019-06-10T06:34:52.666Z,2.97
2019-06-10T06:35:42.886Z,2.87
2019-06-10T06:36:28.566Z,2.97
2019-06-10T06:37:14.641Z,3.17
2019-06-10T06:38:02.448Z,2.73
2019-06-10T06:38:48.133Z,3.07
2019-06-10T06:39:35.446Z,2.70
2019-06-10T06:40:23.079Z,2.80
2019-06-10T06:41:09.663Z,2.80
2019-06-10T06:41:56.112Z,2.67
2019-06-10T06:42:43.309Z,3.07
2019-06-10T06:43:32.801Z,2.77
2019-06-10T06:44:17.742Z,2.60
2019-06-10T06:45:04.320Z,2.57
2019-06-10T06:45:52.959Z,3.07
2019-06-10T06:46:39.637Z,2.80
2019-06-10T06:47:25.638Z,2.60
2019-06-10T06:48:12.313Z,2.73
2019-06-10T06:48:58.573Z,3.27
2019-06-10T06:49:44.313Z,2.70
2019-06-10T06:50:33.096Z,2.73
2019-06-10T06:51:30.419Z,2.90
2019-06-10T06:52:05.916Z,2.87
2019-06-10T06:53:18.792Z,2.90
2019-06-10T06:53:50.925Z,3.13
2019-06-10T06:54:28.476Z,2.90
2019-06-10T06:55:14.301Z,2.63
2019-06-10T06:56:00.227Z,3.03
2019-06-10T06:56:45.951Z,3.07
2019-06-10T06:57:33.879Z,2.50
2019-06-10T06:58:19.487Z,3.47
2019-06-10T06:59:05.610Z,3.43
2019-06-10T06:59:52.596Z,3.20
2019-06-10T07:05:49.674Z,2.77
2019-06-10T07:06:36.039Z,3.03
2019-06-10T07:07:24.539Z,2.50
2019-06-10T07:08:12.954Z,3.50
2019-06-10T07:09:04.458Z,2.97
2019-06-10T07:09:49.593Z,3.10
2019-06-10T07:10:45.883Z,2.90
2019-06-10T07:11:33.970Z,2.90
2019-06-10T07:12:23.090Z,3.20
2019-06-10T07:13:08.894Z,3.80
2019-06-10T07:13:55.033Z,3.60
2019-06-10T07:14:44.988Z,3.17
2019-06-10T07:15:42.199Z,2.97
2019-06-10T07:16:27.342Z,3.50
2019-06-10T07:17:12.927Z,3.50
2019-06-10T07:17:58.610Z,3.60
2019-06-10T07:18:49.811Z,3.67
2019-06-10T07:19:34.445Z,3.67
2019-06-10T07:20:19.596Z,3.30
2019-06-10T07:21:05.431Z,3.20
2019-06-10T07:22:08.661Z,3.53
2019-06-10T07:22:40.179Z,3.47
2019-06-10T07:23:26.235Z,3.43
2019-06-10T07:24:12.665Z,3.13
2019-06-10T07:24:58.486Z,3.07
2019-06-10T07:25:47.146Z,3.27
2019-06-10T07:26:34.067Z,3.53
2019-06-10T07:27:19.700Z,3.37
2019-06-10T07:28:05.807Z,3.63
2019-06-10T07:28:53.665Z,3.33
2019-06-10T07:29:41.415Z,3.27
2019-06-10T07:30:26.752Z,3.53
2019-06-10T07:31:23.643Z,3.63
2019-06-10T07:32:00.257Z,3.63
2019-06-10T07:32:47.427Z,3.40
2019-06-10T07:33:37.382Z,3.20
2019-06-10T07:34:22.241Z,3.17
2019-06-10T07:35:08.327Z,3.40
2019-06-10T07:35:56.562Z,3.27
2019-06-10T07:36:44.105Z,3.27
2019-06-10T07:37:32.803Z,3.73
2019-06-10T07:38:18.742Z,3.60
2019-06-10T07:39:06.052Z,3.30
2019-06-10T07:39:52.432Z,3.50
2019-06-10T07:40:39.201Z,3.17
2019-06-10T07:41:25.203Z,3.53
2019-06-10T07:42:13.481Z,3.00
2019-06-10T07:42:58.551Z,2.83
2019-06-10T07:43:49.563Z,3.57
2019-06-10T07:44:33.365Z,3.17
2019-06-10T07:45:22.140Z,3.00
2019-06-10T07:46:07.863Z,3.23
2019-06-10T07:46:53.944Z,3.43
2019-06-10T07:50:04.317Z,4.00
2019-06-10T07:50:50.147Z,4.40
2019-06-10T07:51:37.360Z,3.80
2019-06-10T07:52:23.634Z,4.40
2019-06-10T07:53:09.675Z,3.70
2019-06-10T07:53:57.667Z,3.87
2019-06-10T07:54:45.250Z,4.37
2019-06-10T07:55:33.259Z,4.28
2019-06-10T07:56:18.742Z,4.17
2019-06-10T07:57:04.341Z,4.47
2019-06-10T07:57:52.911Z,4.72
2019-06-10T07:58:38.849Z,4.45
2019-06-10T07:59:25.685Z,4.20
2019-06-10T08:00:12.375Z,4.50
2019-06-10T08:00:58.175Z,3.40
2019-06-10T08:01:51.183Z,4.50
2019-06-10T08:02:32.289Z,4.53
2019-06-10T08:03:19.104Z,4.20
2019-06-10T08:04:04.825Z,4.00
2019-06-10T08:04:53.885Z,4.15
2019-06-10T08:05:38.060Z,4.55
2019-06-10T08:06:23.659Z,4.30
2019-06-10T08:07:12.402Z,4.90
2019-06-10T08:07:57.876Z,4.25
2019-06-10T08:08:45.383Z,3.87
2019-06-10T08:09:33.189Z,4.28
2019-06-10T08:10:18.819Z,5.03
2019-06-10T08:11:04.691Z,4.03
2019-06-10T08:11:50.373Z,4.00
2019-06-10T08:12:37.075Z,4.00
2019-06-10T08:13:23.492Z,5.20
2019-06-10T08:14:09.300Z,4.47
2019-06-10T08:14:55.190Z,4.95
2019-06-10T08:15:44.250Z,5.08
2019-06-10T08:16:29.147Z,5.30
2019-06-10T08:17:15.300Z,5.12
2019-06-10T08:18:04.136Z,5.40
2019-06-10T08:19:16.120Z,5.85
2019-06-10T08:19:40.349Z,5.22
2019-06-10T08:20:43.810Z,4.87
2019-06-10T08:21:32.181Z,6.37
2019-06-10T08:22:31.136Z,5.15
2019-06-10T08:23:05.031Z,5.40
2019-06-10T08:23:51.361Z,5.53
2019-06-10T08:24:37.716Z,6.10
2019-06-10T08:25:23.907Z,5.20
2019-06-10T08:26:12.460Z,6.08
2019-06-10T08:26:57.891Z,5.25
2019-06-10T08:27:47.171Z,5.60
2019-06-10T08:28:35.422Z,6.03
2019-06-10T08:29:23.394Z,5.60
2019-06-10T08:30:18.700Z,5.20
2019-06-10T08:30:59.605Z,5.53
2019-06-10T08:31:49.458Z,5.65
2019-06-10T08:32:33.577Z,5.80
2019-06-10T08:33:22.485Z,6.25
2019-06-10T08:34:07.759Z,5.72
2019-06-10T08:34:54.120Z,6.08
2019-06-10T08:35:48.329Z,5.95
2019-06-10T08:36:28.455Z,6.03
2019-06-10T08:37:14.164Z,5.78
2019-06-10T08:38:02.489Z,5.83
2019-06-10T08:38:48.796Z,5.22
2019-06-10T08:39:36.206Z,5.72
2019-06-10T08:40:22.953Z,5.28
2019-06-10T08:41:09.300Z,4.80
2019-06-10T08:41:55.663Z,5.80
2019-06-10T08:42:44.104Z,5.55
2019-06-10T08:43:29.663Z,6.10
2019-06-10T08:44:15.886Z,6.15
2019-06-10T08:45:03.593Z,5.67
2019-06-10T08:45:49.604Z,5.70
2019-06-10T08:46:35.390Z,6.25
2019-06-10T08:47:22.978Z,6.15
2019-06-10T08:48:09.197Z,6.58
2019-06-10T08:48:55.681Z,6.12
2019-06-10T08:49:44.044Z,6.60
2019-06-10T08:50:29.293Z,5.90
2019-06-10T08:51:15.283Z,6.85
2019-06-10T08:52:02.679Z,7.20
2019-06-10T08:53:03.449Z,6.40
2019-06-10T08:53:37.371Z,6.20
2019-06-10T08:54:23.689Z,6.00
2019-06-10T08:55:12.555Z,6.15
2019-06-10T08:58:07.087Z,6.33
2019-06-10T08:59:03.058Z,6.87
2019-06-10T08:59:49.443Z,6.58
2019-06-10T09:00:35.559Z,5.83
2019-06-10T09:01:22.287Z,6.85
2019-06-10T09:02:08.183Z,6.33
2019-06-10T09:02:54.042Z,6.40
2019-06-10T09:03:49.393Z,6.62
2019-06-10T09:04:45.981Z,7.62
2019-06-10T09:05:36.029Z,7.03
2019-06-10T09:06:23.249Z,7.78
2019-06-10T09:07:09.383Z,6.78
2019-06-10T09:07:55.246Z,7.12
2019-06-10T09:08:45.640Z,6.80
2019-06-10T09:09:30.195Z,7.28
2019-06-10T09:10:18.737Z,6.70
2019-06-10T09:11:04.629Z,6.87
2019-06-10T09:11:52.000Z,6.78
2019-06-10T09:12:39.683Z,7.17
2019-06-10T09:13:26.643Z,6.60
2019-06-10T09:14:12.767Z,6.37
2019-06-10T09:14:58.797Z,6.78
2019-06-10T09:16:00.568Z,7.25
2019-06-10T09:16:33.730Z,7.60
2019-06-10T09:17:22.665Z,7.50
2019-06-10T09:18:08.083Z,6.83
2019-06-10T09:18:55.468Z,7.25
2019-06-10T09:19:46.087Z,7.20
2019-06-10T09:20:32.976Z,7.28
2019-06-10T09:21:18.384Z,7.17
2019-06-10T09:22:04.399Z,6.97
2019-06-10T09:23:13.326Z,5.83
2019-06-10T09:23:40.747Z,7.22
2019-06-10T09:24:27.195Z,6.12
2019-06-10T09:25:13.459Z,6.35
2019-06-10T09:25:59.770Z,7.22
2019-06-10T09:26:48.673Z,7.90
2019-06-10T09:27:34.279Z,7.75
2019-06-10T09:28:20.332Z,8.40
2019-06-10T09:29:06.335Z,7.83
2019-06-10T09:29:55.503Z,8.75
2019-06-10T09:31:08.361Z,7.95
2019-06-10T09:31:55.786Z,7.87
2019-06-10T09:32:46.567Z,6.87
2019-06-10T09:33:30.148Z,6.37
2019-06-10T09:34:17.019Z,7.25
2019-06-10T09:35:04.569Z,8.40
2019-06-10T09:35:52.807Z,8.53
2019-06-10T09:36:38.072Z,7.65
2019-06-10T09:37:23.828Z,7.47
2019-06-10T09:38:09.454Z,7.20
2019-06-10T09:38:55.859Z,6.75
2019-06-10T09:39:47.223Z,7.28
2019-06-10T09:40:53.219Z,6.87
2019-06-10T09:41:41.227Z,6.97
2019-06-10T09:42:24.123Z,6.75
2019-06-10T09:43:09.843Z,8.03
2019-06-10T09:43:56.997Z,7.37
2019-06-10T09:44:45.895Z,7.80
2019-06-10T09:45:33.259Z,7.97
2019-06-10T09:46:23.262Z,7.55
2019-06-10T09:47:08.907Z,6.72
2019-06-10T09:47:59.899Z,7.10
2019-06-10T09:48:46.978Z,8.03
2019-06-10T09:49:33.023Z,6.75
2019-06-10T09:50:26.670Z,6.53
2019-06-10T09:51:12.854Z,7.55
2019-06-10T09:51:58.584Z,8.30
2019-06-10T09:52:48.582Z,6.72
2019-06-10T09:53:41.311Z,7.22
2019-06-10T09:54:22.668Z,6.90
2019-06-10T09:55:09.891Z,7.53
2019-06-10T09:55:55.887Z,6.78
2019-06-10T09:56:45.122Z,6.35
2019-06-10T09:57:32.009Z,5.87
2019-06-10T09:58:17.206Z,5.80
2019-06-10T09:59:03.875Z,5.62
2019-06-10T09:59:55.736Z,6.30
2019-06-10T10:00:45.200Z,5.92
2019-06-10T10:01:28.890Z,5.92
2019-06-10T10:02:14.535Z,5.95
2019-06-10T10:03:00.152Z,5.05
2019-06-10T10:03:50.334Z,6.60
2019-06-10T10:04:37.242Z,5.80
2019-06-10T10:05:23.334Z,5.83
2019-06-10T10:06:15.043Z,5.20
2019-06-10T10:06:57.573Z,5.12
2019-06-10T10:07:48.243Z,5.50
2019-06-10T10:08:32.719Z,5.33
2019-06-10T10:09:18.520Z,6.45
2019-06-10T10:10:05.500Z,5.35
2019-06-10T10:10:56.270Z,5.37
2019-06-10T10:11:39.045Z,5.83
2019-06-10T10:12:25.152Z,5.67
2019-06-10T10:13:13.044Z,5.67
2019-06-10T10:13:58.995Z,5.87
2019-06-10T10:15:21.624Z,5.30
2019-06-10T10:15:48.286Z,5.45
2019-06-10T10:16:33.933Z,6.50
2019-06-10T10:17:18.974Z,6.45
2019-06-10T10:18:04.964Z,6.20
2019-06-10T10:18:57.590Z,6.40
2019-06-10T10:19:38.630Z,5.35
2019-06-10T10:20:24.418Z,5.55
2019-06-10T10:21:12.865Z,4.65
2019-06-10T10:21:58.649Z,5.60
2019-06-10T10:22:46.074Z,4.62
2019-06-10T10:23:49.612Z,5.22
2019-06-10T10:24:19.989Z,5.55
2019-06-10T10:25:05.692Z,4.55
2019-06-10T10:25:56.390Z,4.40
2019-06-10T10:26:39.730Z,6.05
2019-06-10T10:27:25.431Z,5.17
2019-06-10T10:28:13.293Z,5.25
2019-06-10T10:28:58.888Z,4.97
2019-06-10T10:29:47.179Z,4.75
2019-06-10T10:30:33.276Z,6.45
2019-06-10T10:31:19.629Z,5.45
2019-06-10T10:32:06.883Z,4.55
2019-06-10T10:32:54.055Z,5.65
2019-06-10T10:33:40.300Z,4.97
2019-06-10T10:34:26.425Z,5.83
2019-06-10T10:35:12.749Z,4.35
2019-06-10T10:35:59.862Z,4.67
2019-06-10T10:36:48.291Z,5.37
2019-06-10T10:37:34.195Z,4.97
2019-06-10T10:38:22.693Z,4.72
2019-06-10T10:39:08.437Z,5.58
2019-06-10T10:39:56.530Z,5.20